Wetterdaten: Woche 18.02.19 - 24.02.19 (KW8)
Datum Zeit Temperatur Luftfeuchte Luftdruck Niederschlag Windrichtung Sonnenschein Solar Wind
18.02.2019 00:00 -1,0 C 86 % 1023,6 hPa 0,0 l/m N 0,00 h 0 W/m 0,0 km/h (0 Bft)
18.02.2019 01:00 -1,7 C 87 % 1023,3 hPa 0,0 l/m N 0,00 h 0 W/m 0,0 km/h (0 Bft)
18.02.2019 02:00 -2,3 C 88 % 1023,1 hPa 0,0 l/m N 0,00 h 0 W/m 0,0 km/h (0 Bft)
18.02.2019 03:00 -2,7 C 89 % 1022,6 hPa 0,0 l/m N 0,00 h 0 W/m 0,0 km/h (0 Bft)
18.02.2019 04:00 -3,0 C 90 % 1022,5 hPa 0,0 l/m N 0,00 h 0 W/m 0,0 km/h (0 Bft)
18.02.2019 05:00 -3,5 C 90 % 1022,4 hPa 0,0 l/m N 0,00 h 0 W/m 0,0 km/h (0 Bft)
18.02.2019 06:00 -4,0 C 90 % 1022,3 hPa 0,0 l/m N 0,00 h 0 W/m 0,0 km/h (0 Bft)
18.02.2019 07:00 -4,4 C 91 % 1022,6 hPa 0,0 l/m N 0,08 h 14 W/m 0,0 km/h (0 Bft)
18.02.2019 08:00 -4,3 C 92 % 1022,6 hPa 0,0 l/m N 1,00 h 139 W/m 0,0 km/h (0 Bft)
18.02.2019 09:00 -0,9 C 92 % 1022,6 hPa 0,0 l/m N 0,92 h 274 W/m 0,1 km/h (0 Bft)
18.02.2019 10:00 3,5 C 82 % 1022,1 hPa 0,2 l/m S-SW 0,92 h 382 W/m 5,2 km/h (1 Bft)
18.02.2019 11:00 7,4 C 68 % 1021,7 hPa 0,0 l/m S-SW 1,00 h 488 W/m 5,3 km/h (1 Bft)
18.02.2019 12:00 10,4 C 58 % 1020,8 hPa 0,0 l/m S-SW 1,00 h 515 W/m 9,4 km/h (2 Bft)
18.02.2019 13:00 12,1 C 51 % 1019,9 hPa 0,0 l/m S-SW 1,00 h 487 W/m 8,2 km/h (2 Bft)
18.02.2019 14:00 13,1 C 43 % 1019,2 hPa 0,0 l/m S-SW 1,00 h 413 W/m 8,4 km/h (2 Bft)
18.02.2019 15:00 13,2 C 44 % 1018,9 hPa 0,0 l/m S-SW 1,00 h 290 W/m 7,8 km/h (2 Bft)
18.02.2019 16:00 12,3 C 47 % 1018,6 hPa 0,0 l/m S-SW 0,58 h 115 W/m 2,9 km/h (1 Bft)
18.02.2019 17:00 9,1 C 56 % 1018,4 hPa 0,0 l/m N 0,00 h 16 W/m 0,0 km/h (0 Bft)
18.02.2019 18:00 6,3 C 63 % 1018,5 hPa 0,0 l/m N 0,00 h 0 W/m 0,0 km/h (0 Bft)
18.02.2019 19:00 4,3 C 69 % 1018,8 hPa 0,0 l/m N 0,00 h 0 W/m 0,0 km/h (0 Bft)
18.02.2019 20:00 2,7 C 73 % 1019,0 hPa 0,0 l/m N 0,00 h 0 W/m 0,0 km/h (0 Bft)
18.02.2019 21:00 1,4 C 77 % 1019,3 hPa 0,0 l/m N 0,00 h 0 W/m 0,0 km/h (0 Bft)
18.02.2019 22:00 0,4 C 80 % 1019,3 hPa 0,0 l/m N 0,00 h 0 W/m 0,0 km/h (0 Bft)
18.02.2019 23:00 -0,4 C 83 % 1019,4 hPa 0,0 l/m N 0,00 h 0 W/m 0,0 km/h (0 Bft)
19.02.2019 00:00 -1,0 C 85 % 1019,7 hPa 0,0 l/m N 0,00 h 0 W/m 0,0 km/h (0 Bft)
19.02.2019 01:00 -1,3 C 87 % 1020,1 hPa 0,0 l/m N 0,00 h 0 W/m 0,0 km/h (0 Bft)
19.02.2019 02:00 -1,7 C 89 % 1020,3 hPa 0,0 l/m N 0,00 h 0 W/m 0,0 km/h (0 Bft)
19.02.2019 03:00 -1,6 C 90 % 1020,4 hPa 0,0 l/m S-SW 0,00 h 0 W/m 0,9 km/h (0 Bft)
19.02.2019 04:00 -1,7 C 91 % 1020,5 hPa 0,0 l/m N 0,00 h 0 W/m 0,0 km/h (0 Bft)
19.02.2019 05:00 -1,8 C 91 % 1020,7 hPa 0,0 l/m N 0,00 h 0 W/m 0,0 km/h (0 Bft)
19.02.2019 06:00 -1,7 C 92 % 1020,7 hPa 0,0 l/m N 0,00 h 0 W/m 0,0 km/h (0 Bft)
19.02.2019 07:00 -1,6 C 92 % 1020,9 hPa 0,0 l/m N 0,08 h 18 W/m 0,5 km/h (0 Bft)
19.02.2019 08:00 -0,0 C 94 % 1021,3 hPa 0,0 l/m S-SW 0,92 h 116 W/m 5,2 km/h (1 Bft)
19.02.2019 09:00 3,8 C 85 % 1021,5 hPa 0,0 l/m S-SO 1,00 h 249 W/m 8,4 km/h (2 Bft)
19.02.2019 10:00 6,1 C 77 % 1021,5 hPa 0,0 l/m S-SO 1,00 h 349 W/m 10,1 km/h (2 Bft)
19.02.2019 11:00 8,3 C 69 % 1021,5 hPa 0,0 l/m S-SW 0,83 h 341 W/m 13,8 km/h (3 Bft)
19.02.2019 12:00 9,1 C 66 % 1021,2 hPa 0,0 l/m W-SW 0,00 h 205 W/m 19,4 km/h (3 Bft)
19.02.2019 13:00 9,9 C 65 % 1020,5 hPa 0,0 l/m SW 0,92 h 440 W/m 19,6 km/h (3 Bft)
19.02.2019 14:00 11,2 C 62 % 1020,0 hPa 0,0 l/m W-SW 1,00 h 374 W/m 18,1 km/h (3 Bft)
19.02.2019 15:00 11,5 C 62 % 1019,8 hPa 0,0 l/m SW 0,75 h 233 W/m 17,6 km/h (3 Bft)
19.02.2019 16:00 10,6 C 65 % 1019,7 hPa 0,0 l/m SW 0,08 h 86 W/m 15,6 km/h (3 Bft)
19.02.2019 17:00 10,0 C 68 % 1019,6 hPa 0,0 l/m W-SW 0,00 h 16 W/m 11,0 km/h (2 Bft)
19.02.2019 18:00 9,3 C 70 % 1020,1 hPa 0,0 l/m W-SW 0,00 h 0 W/m 3,1 km/h (1 Bft)
19.02.2019 19:00 8,3 C 73 % 1020,7 hPa 0,0 l/m N 0,00 h 0 W/m 0,9 km/h (0 Bft)
19.02.2019 20:00 7,5 C 76 % 1021,1 hPa 0,0 l/m N 0,00 h 0 W/m 0,0 km/h (0 Bft)
19.02.2019 21:00 6,6 C 79 % 1021,3 hPa 0,0 l/m N 0,00 h 0 W/m 0,0 km/h (0 Bft)
19.02.2019 22:00 5,6 C 81 % 1021,4 hPa 0,0 l/m N 0,00 h 0 W/m 0,0 km/h (0 Bft)
19.02.2019 23:00 5,1 C 84 % 1021,5 hPa 0,0 l/m N 0,00 h 0 W/m 0,0 km/h (0 Bft)
20.02.2019 00:00 4,7 C 86 % 1021,7 hPa 0,0 l/m N 0,00 h 0 W/m 0,0 km/h (0 Bft)
20.02.2019 01:00 4,3 C 87 % 1021,6 hPa 0,0 l/m N 0,00 h 0 W/m 0,0 km/h (0 Bft)
20.02.2019 02:00 3,5 C 87 % 1021,8 hPa 0,0 l/m N 0,00 h 0 W/m 0,0 km/h (0 Bft)
20.02.2019 03:00 2,4 C 87 % 1021,7 hPa 0,0 l/m N 0,00 h 0 W/m 0,0 km/h (0 Bft)
20.02.2019 04:00 2,2 C 90 % 1021,8 hPa 0,0 l/m N 0,00 h 0 W/m 0,0 km/h (0 Bft)
20.02.2019 05:00 2,2 C 92 % 1021,9 hPa 0,0 l/m N 0,00 h 0 W/m 0,0 km/h (0 Bft)
20.02.2019 06:00 2,3 C 93 % 1022,1 hPa 0,0 l/m N 0,00 h 0 W/m 0,0 km/h (0 Bft)
20.02.2019 07:00 2,4 C 94 % 1022,5 hPa 0,0 l/m N 0,08 h 21 W/m 0,0 km/h (0 Bft)
20.02.2019 08:00 2,6 C 94 % 1023,0 hPa 0,0 l/m N 0,17 h 74 W/m 0,0 km/h (0 Bft)
20.02.2019 09:00 4,0 C 93 % 1023,3 hPa 0,0 l/m N 0,75 h 235 W/m 0,0 km/h (0 Bft)
20.02.2019 10:00 6,9 C 80 % 1023,4 hPa 0,0 l/m W-SW 0,67 h 304 W/m 9,0 km/h (2 Bft)
20.02.2019 11:00 8,6 C 75 % 1023,6 hPa 0,0 l/m S-SW 0,92 h 394 W/m 11,6 km/h (2 Bft)
20.02.2019 12:00 10,0 C 72 % 1023,5 hPa 0,0 l/m SW 0,58 h 328 W/m 6,8 km/h (2 Bft)
20.02.2019 13:00 10,0 C 72 % 1023,3 hPa 0,0 l/m SW 0,00 h 177 W/m 3,6 km/h (1 Bft)
20.02.2019 14:00 10,2 C 72 % 1023,1 hPa 0,0 l/m N 0,08 h 198 W/m 0,1 km/h (0 Bft)
20.02.2019 15:00 10,9 C 69 % 1023,0 hPa 0,0 l/m W 0,58 h 195 W/m 4,7 km/h (1 Bft)
20.02.2019 16:00 10,8 C 68 % 1022,9 hPa 0,0 l/m N 0,25 h 92 W/m 1,1 km/h (0 Bft)
20.02.2019 17:00 8,6 C 74 % 1023,1 hPa 0,0 l/m N 0,25 h 23 W/m 0,0 km/h (0 Bft)
20.02.2019 18:00 7,1 C 80 % 1023,7 hPa 0,0 l/m N 0,00 h 0 W/m 0,0 km/h (0 Bft)
20.02.2019 19:00 5,9 C 80 % 1024,2 hPa 0,0 l/m N 0,00 h 0 W/m 0,0 km/h (0 Bft)
20.02.2019 20:00 4,3 C 83 % 1024,6 hPa 0,0 l/m N 0,00 h 0 W/m 0,0 km/h (0 Bft)
20.02.2019 21:00 3,3 C 86 % 1025,1 hPa 0,0 l/m N 0,00 h 0 W/m 0,0 km/h (0 Bft)
20.02.2019 22:00 2,7 C 87 % 1025,3 hPa 0,0 l/m N 0,00 h 0 W/m 0,0 km/h (0 Bft)
20.02.2019 23:00 1,8 C 88 % 1025,6 hPa 0,0 l/m N 0,00 h 0 W/m 0,0 km/h (0 Bft)
21.02.2019 00:00 1,4 C 89 % 1025,8 hPa 0,0 l/m N 0,00 h 0 W/m 0,0 km/h (0 Bft)
Min-Datum _ 18.02.19 18.02.19 18.02.19 - - - - 18.02.19
_ Min-Zeit 07:50 14:25 17:20 - - - - 00:00
Minimum _ -4,6 C 39 % 1018,2 hPa - - - - 0,0 km/h (0 Bft)
Max-Datum _ 18.02.19 19.02.19 21.02.19 18.02.19 - 18.02.19 20.02.19 19.02.19
_ Max-Zeit 14:40 08:50 00:15 10:05 - 07:35 12:00 12:50
Maximum _ 13,4 C 95 % 1025,9 hPa 0,2 l/m - 0,08 h 531 W/m 24,1 km/h
W-SW (4 Bft)
Durchschnitt _ 4,3 C 79 % 1021,6 hPa #0,2 l/m S-SW #19:25 h 230 W/m 3,1 km/h (1 Bft)